sensor_id;sensor_type;location;lat;lon;timestamp;temperature;humidity
14079;DHT22;7115;50.150;8.568;2023-04-24T00:01:39;12.80;99.90
14079;DHT22;7115;50.150;8.568;2023-04-24T00:04:06;12.80;99.90
14079;DHT22;7115;50.150;8.568;2023-04-24T00:06:34;12.80;99.90
14079;DHT22;7115;50.150;8.568;2023-04-24T00:09:02;12.80;99.90
14079;DHT22;7115;50.150;8.568;2023-04-24T00:11:30;12.80;99.90
14079;DHT22;7115;50.150;8.568;2023-04-24T00:13:57;12.80;99.90
14079;DHT22;7115;50.150;8.568;2023-04-24T00:16:24;12.80;99.90
14079;DHT22;7115;50.150;8.568;2023-04-24T00:18:51;12.80;99.90
14079;DHT22;7115;50.150;8.568;2023-04-24T00:21:19;12.80;99.90
14079;DHT22;7115;50.150;8.568;2023-04-24T00:23:47;12.80;99.90
14079;DHT22;7115;50.150;8.568;2023-04-24T00:26:15;12.80;99.90
14079;DHT22;7115;50.150;8.568;2023-04-24T00:28:42;12.80;99.90
14079;DHT22;7115;50.150;8.568;2023-04-24T00:31:09;12.80;99.90
14079;DHT22;7115;50.150;8.568;2023-04-24T00:33:36;12.80;99.90
14079;DHT22;7115;50.150;8.568;2023-04-24T00:36:03;12.70;99.90
14079;DHT22;7115;50.150;8.568;2023-04-24T00:38:30;12.80;99.90
14079;DHT22;7115;50.150;8.568;2023-04-24T00:40:57;12.70;99.90
14079;DHT22;7115;50.150;8.568;2023-04-24T00:43:25;12.70;99.90
14079;DHT22;7115;50.150;8.568;2023-04-24T00:45:52;12.70;99.90
14079;DHT22;7115;50.150;8.568;2023-04-24T00:48:20;12.70;99.90
14079;DHT22;7115;50.150;8.568;2023-04-24T00:50:47;12.70;99.90
14079;DHT22;7115;50.150;8.568;2023-04-24T00:53:14;12.70;99.90
14079;DHT22;7115;50.150;8.568;2023-04-24T00:55:41;12.70;99.90
14079;DHT22;7115;50.150;8.568;2023-04-24T00:58:08;12.70;99.90
14079;DHT22;7115;50.150;8.568;2023-04-24T01:00:37;12.60;99.90
14079;DHT22;7115;50.150;8.568;2023-04-24T01:03:05;12.60;99.90
14079;DHT22;7115;50.150;8.568;2023-04-24T01:05:33;12.60;99.90
14079;DHT22;7115;50.150;8.568;2023-04-24T01:08:01;12.50;99.90
14079;DHT22;7115;50.150;8.568;2023-04-24T01:10:29;12.50;99.90
14079;DHT22;7115;50.150;8.568;2023-04-24T01:12:58;12.50;99.90
14079;DHT22;7115;50.150;8.568;2023-04-24T01:15:24;12.40;99.90
14079;DHT22;7115;50.150;8.568;2023-04-24T01:17:53;12.40;99.90
14079;DHT22;7115;50.150;8.568;2023-04-24T01:20:20;12.30;99.90
14079;DHT22;7115;50.150;8.568;2023-04-24T01:22:48;12.30;99.90
14079;DHT22;7115;50.150;8.568;2023-04-24T01:25:15;12.30;99.90
14079;DHT22;7115;50.150;8.568;2023-04-24T01:27:43;12.20;99.90
14079;DHT22;7115;50.150;8.568;2023-04-24T01:30:11;12.20;99.90
14079;DHT22;7115;50.150;8.568;2023-04-24T01:32:39;12.20;99.90
14079;DHT22;7115;50.150;8.568;2023-04-24T01:35:07;12.20;99.90
14079;DHT22;7115;50.150;8.568;2023-04-24T01:37:34;12.20;99.90
14079;DHT22;7115;50.150;8.568;2023-04-24T01:40:06;12.20;99.90
14079;DHT22;7115;50.150;8.568;2023-04-24T01:42:34;12.20;99.90
14079;DHT22;7115;50.150;8.568;2023-04-24T01:45:03;12.20;99.90
14079;DHT22;7115;50.150;8.568;2023-04-24T01:47:31;12.20;99.90
14079;DHT22;7115;50.150;8.568;2023-04-24T01:49:58;12.20;99.90
14079;DHT22;7115;50.150;8.568;2023-04-24T01:52:25;12.20;99.90
14079;DHT22;7115;50.150;8.568;2023-04-24T01:54:52;12.20;99.90
14079;DHT22;7115;50.150;8.568;2023-04-24T01:57:20;12.20;99.90
14079;DHT22;7115;50.150;8.568;2023-04-24T01:59:47;12.10;99.90
14079;DHT22;7115;50.150;8.568;2023-04-24T02:02:14;12.10;99.90
14079;DHT22;7115;50.150;8.568;2023-04-24T02:04:41;12.10;99.90
14079;DHT22;7115;50.150;8.568;2023-04-24T02:07:08;12.10;99.90
14079;DHT22;7115;50.150;8.568;2023-04-24T02:09:35;12.10;99.90
14079;DHT22;7115;50.150;8.568;2023-04-24T02:12:02;12.10;99.90
14079;DHT22;7115;50.150;8.568;2023-04-24T02:14:30;12.10;99.90
14079;DHT22;7115;50.150;8.568;2023-04-24T02:16:57;12.10;99.90
14079;DHT22;7115;50.150;8.568;2023-04-24T02:19:24;12.20;99.90
14079;DHT22;7115;50.150;8.568;2023-04-24T02:21:51;12.10;99.90
14079;DHT22;7115;50.150;8.568;2023-04-24T02:24:18;12.20;99.90
14079;DHT22;7115;50.150;8.568;2023-04-24T02:26:45;12.20;99.90
14079;DHT22;7115;50.150;8.568;2023-04-24T02:29:12;12.20;99.90
14079;DHT22;7115;50.150;8.568;2023-04-24T02:31:40;12.20;99.90
14079;DHT22;7115;50.150;8.568;2023-04-24T02:34:07;12.30;99.90
14079;DHT22;7115;50.150;8.568;2023-04-24T02:36:33;12.30;99.90
14079;DHT22;7115;50.150;8.568;2023-04-24T02:39:00;12.30;99.90
14079;DHT22;7115;50.150;8.568;2023-04-24T02:41:27;12.30;99.90
14079;DHT22;7115;50.150;8.568;2023-04-24T02:43:59;12.30;99.90
14079;DHT22;7115;50.150;8.568;2023-04-24T02:46:26;12.30;99.90
14079;DHT22;7115;50.150;8.568;2023-04-24T02:48:54;12.30;99.90
14079;DHT22;7115;50.150;8.568;2023-04-24T02:51:21;12.20;99.90
14079;DHT22;7115;50.150;8.568;2023-04-24T02:53:48;12.20;99.90
14079;DHT22;7115;50.150;8.568;2023-04-24T02:56:15;12.20;99.90
14079;DHT22;7115;50.150;8.568;2023-04-24T02:58:42;12.20;99.90
14079;DHT22;7115;50.150;8.568;2023-04-24T03:01:09;12.20;99.90
14079;DHT22;7115;50.150;8.568;2023-04-24T03:03:37;12.20;99.90
14079;DHT22;7115;50.150;8.568;2023-04-24T03:06:05;12.20;99.90
14079;DHT22;7115;50.150;8.568;2023-04-24T03:08:34;12.20;99.90
14079;DHT22;7115;50.150;8.568;2023-04-24T03:11:01;12.20;99.90
14079;DHT22;7115;50.150;8.568;2023-04-24T03:13:28;12.20;99.90
14079;DHT22;7115;50.150;8.568;2023-04-24T03:15:55;12.30;99.90
14079;DHT22;7115;50.150;8.568;2023-04-24T03:18:21;12.20;99.90
14079;DHT22;7115;50.150;8.568;2023-04-24T03:20:48;12.20;99.90
14079;DHT22;7115;50.150;8.568;2023-04-24T03:23:17;12.20;99.90
14079;DHT22;7115;50.150;8.568;2023-04-24T03:25:44;12.20;99.90
14079;DHT22;7115;50.150;8.568;2023-04-24T03:28:11;12.10;99.90
14079;DHT22;7115;50.150;8.568;2023-04-24T03:30:38;12.10;99.90
14079;DHT22;7115;50.150;8.568;2023-04-24T03:33:05;12.10;99.90
14079;DHT22;7115;50.150;8.568;2023-04-24T03:35:32;12.10;99.90
14079;DHT22;7115;50.150;8.568;2023-04-24T03:37:59;12.10;99.90
14079;DHT22;7115;50.150;8.568;2023-04-24T03:40:27;12.10;99.90
14079;DHT22;7115;50.150;8.568;2023-04-24T03:42:56;12.10;99.90
14079;DHT22;7115;50.150;8.568;2023-04-24T03:45:22;12.10;99.90
14079;DHT22;7115;50.150;8.568;2023-04-24T03:47:50;12.10;99.90
14079;DHT22;7115;50.150;8.568;2023-04-24T03:50:17;12.10;99.90
14079;DHT22;7115;50.150;8.568;2023-04-24T03:52:44;12.10;99.90
14079;DHT22;7115;50.150;8.568;2023-04-24T03:55:11;12.00;99.90
14079;DHT22;7115;50.150;8.568;2023-04-24T03:57:41;12.10;99.90
14079;DHT22;7115;50.150;8.568;2023-04-24T04:00:09;12.10;99.90
14079;DHT22;7115;50.150;8.568;2023-04-24T04:02:36;12.10;99.90
14079;DHT22;7115;50.150;8.568;2023-04-24T04:05:03;12.10;99.90
14079;DHT22;7115;50.150;8.568;2023-04-24T04:07:30;12.10;99.90
14079;DHT22;7115;50.150;8.568;2023-04-24T04:09:57;12.10;99.90
14079;DHT22;7115;50.150;8.568;2023-04-24T04:12:24;12.10;99.90
14079;DHT22;7115;50.150;8.568;2023-04-24T04:14:52;12.00;99.90
14079;DHT22;7115;50.150;8.568;2023-04-24T04:17:19;12.00;99.90
14079;DHT22;7115;50.150;8.568;2023-04-24T04:19:46;11.90;99.90
14079;DHT22;7115;50.150;8.568;2023-04-24T04:22:12;11.90;99.90
14079;DHT22;7115;50.150;8.568;2023-04-24T04:24:39;11.90;99.90
14079;DHT22;7115;50.150;8.568;2023-04-24T04:27:07;11.90;99.90
14079;DHT22;7115;50.150;8.568;2023-04-24T04:29:34;11.90;99.90
14079;DHT22;7115;50.150;8.568;2023-04-24T04:32:03;11.80;99.90
14079;DHT22;7115;50.150;8.568;2023-04-24T04:34:30;11.80;99.90
14079;DHT22;7115;50.150;8.568;2023-04-24T04:36:58;11.80;99.90
14079;DHT22;7115;50.150;8.568;2023-04-24T04:39:28;11.70;99.90
14079;DHT22;7115;50.150;8.568;2023-04-24T04:41:56;11.70;99.90
14079;DHT22;7115;50.150;8.568;2023-04-24T04:44:23;11.70;99.90
14079;DHT22;7115;50.150;8.568;2023-04-24T04:46:50;11.60;99.90
14079;DHT22;7115;50.150;8.568;2023-04-24T04:49:21;11.60;99.90
14079;DHT22;7115;50.150;8.568;2023-04-24T04:51:48;11.50;99.90
14079;DHT22;7115;50.150;8.568;2023-04-24T04:54:15;11.40;99.90
14079;DHT22;7115;50.150;8.568;2023-04-24T04:56:42;11.40;99.90
14079;DHT22;7115;50.150;8.568;2023-04-24T04:59:09;11.40;99.90
14079;DHT22;7115;50.150;8.568;2023-04-24T05:01:37;11.40;99.90
14079;DHT22;7115;50.150;8.568;2023-04-24T05:04:04;11.40;99.90
14079;DHT22;7115;50.150;8.568;2023-04-24T05:06:33;11.40;99.90
14079;DHT22;7115;50.150;8.568;2023-04-24T05:09:00;11.40;99.90
14079;DHT22;7115;50.150;8.568;2023-04-24T05:11:26;11.40;99.90
14079;DHT22;7115;50.150;8.568;2023-04-24T05:13:53;11.50;99.90
14079;DHT22;7115;50.150;8.568;2023-04-24T05:16:20;11.40;99.90
14079;DHT22;7115;50.150;8.568;2023-04-24T05:18:47;11.40;99.90
14079;DHT22;7115;50.150;8.568;2023-04-24T05:21:14;11.30;99.90
14079;DHT22;7115;50.150;8.568;2023-04-24T05:23:42;11.30;99.90
14079;DHT22;7115;50.150;8.568;2023-04-24T05:26:09;11.20;99.90
14079;DHT22;7115;50.150;8.568;2023-04-24T05:28:36;11.20;99.90
14079;DHT22;7115;50.150;8.568;2023-04-24T05:31:03;11.20;99.90
14079;DHT22;7115;50.150;8.568;2023-04-24T05:33:31;11.20;99.90
14079;DHT22;7115;50.150;8.568;2023-04-24T05:35:57;11.30;99.90
14079;DHT22;7115;50.150;8.568;2023-04-24T05:38:24;11.30;99.90
14079;DHT22;7115;50.150;8.568;2023-04-24T05:40:53;11.30;99.90
14079;DHT22;7115;50.150;8.568;2023-04-24T05:43:19;11.30;99.90
14079;DHT22;7115;50.150;8.568;2023-04-24T05:45:46;11.30;99.90
14079;DHT22;7115;50.150;8.568;2023-04-24T05:48:13;11.30;99.90
14079;DHT22;7115;50.150;8.568;2023-04-24T05:50:40;11.40;99.90
14079;DHT22;7115;50.150;8.568;2023-04-24T05:53:07;11.40;99.90
14079;DHT22;7115;50.150;8.568;2023-04-24T05:55:34;11.40;99.90
14079;DHT22;7115;50.150;8.568;2023-04-24T05:58:02;11.40;99.90
14079;DHT22;7115;50.150;8.568;2023-04-24T06:00:30;11.40;99.90
14079;DHT22;7115;50.150;8.568;2023-04-24T06:02:57;11.30;99.90
14079;DHT22;7115;50.150;8.568;2023-04-24T06:05:24;11.30;99.90
14079;DHT22;7115;50.150;8.568;2023-04-24T06:07:52;11.20;99.90
14079;DHT22;7115;50.150;8.568;2023-04-24T06:10:18;11.10;99.90
14079;DHT22;7115;50.150;8.568;2023-04-24T06:12:45;11.10;99.90
14079;DHT22;7115;50.150;8.568;2023-04-24T06:15:14;11.00;99.90
14079;DHT22;7115;50.150;8.568;2023-04-24T06:17:40;11.00;99.90
14079;DHT22;7115;50.150;8.568;2023-04-24T06:20:08;11.00;99.90
14079;DHT22;7115;50.150;8.568;2023-04-24T06:22:35;11.00;99.90
14079;DHT22;7115;50.150;8.568;2023-04-24T06:25:02;11.00;99.90
14079;DHT22;7115;50.150;8.568;2023-04-24T06:27:29;11.00;99.90
14079;DHT22;7115;50.150;8.568;2023-04-24T06:29:56;11.00;99.90
14079;DHT22;7115;50.150;8.568;2023-04-24T06:32:25;11.10;99.90
14079;DHT22;7115;50.150;8.568;2023-04-24T06:34:52;11.10;99.90
14079;DHT22;7115;50.150;8.568;2023-04-24T06:37:20;11.10;99.90
14079;DHT22;7115;50.150;8.568;2023-04-24T06:39:47;11.10;99.90
14079;DHT22;7115;50.150;8.568;2023-04-24T06:42:14;11.10;99.90
14079;DHT22;7115;50.150;8.568;2023-04-24T06:44:41;11.20;99.90
14079;DHT22;7115;50.150;8.568;2023-04-24T06:47:08;11.20;99.90
14079;DHT22;7115;50.150;8.568;2023-04-24T06:49:37;11.30;99.90
14079;DHT22;7115;50.150;8.568;2023-04-24T06:52:04;11.50;99.90
14079;DHT22;7115;50.150;8.568;2023-04-24T06:54:31;11.70;99.90
14079;DHT22;7115;50.150;8.568;2023-04-24T06:56:58;11.70;99.90
14079;DHT22;7115;50.150;8.568;2023-04-24T06:59:25;11.80;99.90
14079;DHT22;7115;50.150;8.568;2023-04-24T07:01:52;11.90;99.90
14079;DHT22;7115;50.150;8.568;2023-04-24T07:04:21;12.00;99.90
14079;DHT22;7115;50.150;8.568;2023-04-24T07:06:50;12.10;99.90
14079;DHT22;7115;50.150;8.568;2023-04-24T07:09:18;12.20;99.90
14079;DHT22;7115;50.150;8.568;2023-04-24T07:11:45;12.30;99.90
14079;DHT22;7115;50.150;8.568;2023-04-24T07:14:13;12.40;99.90
14079;DHT22;7115;50.150;8.568;2023-04-24T07:16:40;12.40;99.90
14079;DHT22;7115;50.150;8.568;2023-04-24T07:19:09;12.50;99.90
14079;DHT22;7115;50.150;8.568;2023-04-24T07:21:36;12.60;99.90
14079;DHT22;7115;50.150;8.568;2023-04-24T07:24:04;12.70;99.90
14079;DHT22;7115;50.150;8.568;2023-04-24T07:26:31;12.90;99.90
14079;DHT22;7115;50.150;8.568;2023-04-24T07:28:58;12.90;99.90
14079;DHT22;7115;50.150;8.568;2023-04-24T07:31:26;13.00;99.90
14079;DHT22;7115;50.150;8.568;2023-04-24T07:33:53;13.10;99.90
14079;DHT22;7115;50.150;8.568;2023-04-24T07:36:20;13.20;99.90
14079;DHT22;7115;50.150;8.568;2023-04-24T07:38:47;13.30;99.90
14079;DHT22;7115;50.150;8.568;2023-04-24T07:41:15;13.30;99.90
14079;DHT22;7115;50.150;8.568;2023-04-24T07:43:42;13.50;99.90
14079;DHT22;7115;50.150;8.568;2023-04-24T07:46:09;13.60;99.90
14079;DHT22;7115;50.150;8.568;2023-04-24T07:48:36;13.70;99.90
14079;DHT22;7115;50.150;8.568;2023-04-24T07:51:03;13.80;99.90
14079;DHT22;7115;50.150;8.568;2023-04-24T07:53:31;13.70;99.90
14079;DHT22;7115;50.150;8.568;2023-04-24T07:55:59;13.50;99.90
14079;DHT22;7115;50.150;8.568;2023-04-24T07:58:27;13.40;99.90
14079;DHT22;7115;50.150;8.568;2023-04-24T08:00:54;13.20;99.90
14079;DHT22;7115;50.150;8.568;2023-04-24T08:03:21;13.20;99.90
14079;DHT22;7115;50.150;8.568;2023-04-24T08:05:49;13.10;99.90
14079;DHT22;7115;50.150;8.568;2023-04-24T08:08:19;13.20;99.90
14079;DHT22;7115;50.150;8.568;2023-04-24T08:10:46;13.30;99.90
14079;DHT22;7115;50.150;8.568;2023-04-24T08:13:14;13.50;99.90
14079;DHT22;7115;50.150;8.568;2023-04-24T08:15:42;13.50;99.90
14079;DHT22;7115;50.150;8.568;2023-04-24T08:18:09;13.60;99.90
14079;DHT22;7115;50.150;8.568;2023-04-24T08:20:38;13.60;99.90
14079;DHT22;7115;50.150;8.568;2023-04-24T08:23:06;13.70;99.90
14079;DHT22;7115;50.150;8.568;2023-04-24T08:25:33;13.70;99.90
14079;DHT22;7115;50.150;8.568;2023-04-24T08:28:02;13.70;99.90
14079;DHT22;7115;50.150;8.568;2023-04-24T08:30:30;13.80;99.90
14079;DHT22;7115;50.150;8.568;2023-04-24T08:32:59;13.90;99.90
14079;DHT22;7115;50.150;8.568;2023-04-24T08:35:27;14.00;99.90
14079;DHT22;7115;50.150;8.568;2023-04-24T08:37:55;13.90;99.90
14079;DHT22;7115;50.150;8.568;2023-04-24T08:40:27;13.90;99.90
14079;DHT22;7115;50.150;8.568;2023-04-24T08:42:55;13.80;99.90
14079;DHT22;7115;50.150;8.568;2023-04-24T08:45:24;13.80;99.90
14079;DHT22;7115;50.150;8.568;2023-04-24T08:47:52;13.70;99.90
14079;DHT22;7115;50.150;8.568;2023-04-24T08:50:22;13.60;99.90
14079;DHT22;7115;50.150;8.568;2023-04-24T08:52:50;13.40;99.90
14079;DHT22;7115;50.150;8.568;2023-04-24T08:55:18;13.30;99.90
14079;DHT22;7115;50.150;8.568;2023-04-24T08:57:51;13.10;99.90
14079;DHT22;7115;50.150;8.568;2023-04-24T09:00:20;13.10;99.90
14079;DHT22;7115;50.150;8.568;2023-04-24T09:02:49;13.00;99.90
14079;DHT22;7115;50.150;8.568;2023-04-24T09:05:17;13.00;99.90
14079;DHT22;7115;50.150;8.568;2023-04-24T09:07:52;12.90;99.90
14079;DHT22;7115;50.150;8.568;2023-04-24T09:10:20;12.90;99.90
14079;DHT22;7115;50.150;8.568;2023-04-24T09:12:50;12.70;99.90
14079;DHT22;7115;50.150;8.568;2023-04-24T09:15:18;12.70;99.90
14079;DHT22;7115;50.150;8.568;2023-04-24T09:17:45;12.70;99.90
14079;DHT22;7115;50.150;8.568;2023-04-24T09:20:12;12.60;99.90
14079;DHT22;7115;50.150;8.568;2023-04-24T09:22:39;12.60;99.90
14079;DHT22;7115;50.150;8.568;2023-04-24T09:25:09;12.60;99.90
14079;DHT22;7115;50.150;8.568;2023-04-24T09:27:42;12.50;99.90
14079;DHT22;7115;50.150;8.568;2023-04-24T09:30:10;12.50;99.90
14079;DHT22;7115;50.150;8.568;2023-04-24T09:32:37;12.50;99.90
14079;DHT22;7115;50.150;8.568;2023-04-24T09:35:06;12.50;99.90
14079;DHT22;7115;50.150;8.568;2023-04-24T09:37:35;12.50;99.90
14079;DHT22;7115;50.150;8.568;2023-04-24T09:40:12;12.50;99.90
14079;DHT22;7115;50.150;8.568;2023-04-24T09:42:40;12.50;99.90
14079;DHT22;7115;50.150;8.568;2023-04-24T09:45:09;12.40;99.90
14079;DHT22;7115;50.150;8.568;2023-04-24T09:47:42;12.40;99.90
14079;DHT22;7115;50.150;8.568;2023-04-24T09:50:11;12.40;99.90
14079;DHT22;7115;50.150;8.568;2023-04-24T09:52:43;12.40;99.90
14079;DHT22;7115;50.150;8.568;2023-04-24T09:55:19;12.30;99.90
14079;DHT22;7115;50.150;8.568;2023-04-24T09:57:50;12.30;99.90
14079;DHT22;7115;50.150;8.568;2023-04-24T10:00:24;12.20;99.90
14079;DHT22;7115;50.150;8.568;2023-04-24T10:02:57;12.20;99.90
14079;DHT22;7115;50.150;8.568;2023-04-24T10:05:26;12.20;99.90
14079;DHT22;7115;50.150;8.568;2023-04-24T10:07:57;12.30;99.90
14079;DHT22;7115;50.150;8.568;2023-04-24T10:10:25;12.30;99.90
14079;DHT22;7115;50.150;8.568;2023-04-24T10:12:53;12.40;99.90
14079;DHT22;7115;50.150;8.568;2023-04-24T10:15:20;12.50;99.90
14079;DHT22;7115;50.150;8.568;2023-04-24T10:17:48;12.50;99.90
14079;DHT22;7115;50.150;8.568;2023-04-24T10:20:23;12.60;99.90
14079;DHT22;7115;50.150;8.568;2023-04-24T10:22:52;12.60;99.90
14079;DHT22;7115;50.150;8.568;2023-04-24T10:25:20;12.60;99.90
14079;DHT22;7115;50.150;8.568;2023-04-24T10:27:50;12.60;99.90
14079;DHT22;7115;50.150;8.568;2023-04-24T10:30:17;12.50;99.90
14079;DHT22;7115;50.150;8.568;2023-04-24T10:32:45;12.40;99.90
14079;DHT22;7115;50.150;8.568;2023-04-24T10:35:13;12.20;99.90
14079;DHT22;7115;50.150;8.568;2023-04-24T10:37:43;12.10;99.90
14079;DHT22;7115;50.150;8.568;2023-04-24T10:40:11;12.00;99.90
14079;DHT22;7115;50.150;8.568;2023-04-24T10:42:40;11.90;99.90
14079;DHT22;7115;50.150;8.568;2023-04-24T10:45:17;11.90;99.90
14079;DHT22;7115;50.150;8.568;2023-04-24T10:47:52;11.80;99.90
14079;DHT22;7115;50.150;8.568;2023-04-24T10:50:19;11.90;99.90
14079;DHT22;7115;50.150;8.568;2023-04-24T10:52:46;12.00;99.90
14079;DHT22;7115;50.150;8.568;2023-04-24T10:55:13;12.20;99.90
14079;DHT22;7115;50.150;8.568;2023-04-24T10:58:03;12.50;99.90
14079;DHT22;7115;50.150;8.568;2023-04-24T11:00:36;12.60;99.90
14079;DHT22;7115;50.150;8.568;2023-04-24T11:03:05;12.60;99.90
14079;DHT22;7115;50.150;8.568;2023-04-24T11:05:54;12.60;99.90
14079;DHT22;7115;50.150;8.568;2023-04-24T11:08:27;12.60;99.90
14079;DHT22;7115;50.150;8.568;2023-04-24T11:10:56;12.60;99.90
14079;DHT22;7115;50.150;8.568;2023-04-24T11:16:15;12.80;99.90
14079;DHT22;7115;50.150;8.568;2023-04-24T11:18:50;12.80;99.90
14079;DHT22;7115;50.150;8.568;2023-04-24T11:21:19;12.90;99.90
14079;DHT22;7115;50.150;8.568;2023-04-24T11:23:47;13.00;99.90
14079;DHT22;7115;50.150;8.568;2023-04-24T11:26:18;13.10;99.90
14079;DHT22;7115;50.150;8.568;2023-04-24T11:28:47;13.20;99.90
14079;DHT22;7115;50.150;8.568;2023-04-24T11:31:38;13.40;99.90
14079;DHT22;7115;50.150;8.568;2023-04-24T11:34:07;13.60;99.90
14079;DHT22;7115;50.150;8.568;2023-04-24T11:36:35;13.80;99.90
14079;DHT22;7115;50.150;8.568;2023-04-24T11:39:02;13.80;99.90
14079;DHT22;7115;50.150;8.568;2023-04-24T11:41:29;13.90;99.90
14079;DHT22;7115;50.150;8.568;2023-04-24T11:43:57;13.90;99.90
14079;DHT22;7115;50.150;8.568;2023-04-24T11:46:27;14.00;99.90
14079;DHT22;7115;50.150;8.568;2023-04-24T11:48:57;13.90;99.90
14079;DHT22;7115;50.150;8.568;2023-04-24T11:51:26;13.70;99.90
14079;DHT22;7115;50.150;8.568;2023-04-24T11:54:07;13.60;99.90
14079;DHT22;7115;50.150;8.568;2023-04-24T11:56:34;13.60;99.90
14079;DHT22;7115;50.150;8.568;2023-04-24T11:59:04;13.60;99.90
14079;DHT22;7115;50.150;8.568;2023-04-24T12:01:43;13.60;99.90
14079;DHT22;7115;50.150;8.568;2023-04-24T12:04:12;13.60;99.90
14079;DHT22;7115;50.150;8.568;2023-04-24T12:06:39;13.60;99.90
14079;DHT22;7115;50.150;8.568;2023-04-24T12:09:06;13.60;99.90
14079;DHT22;7115;50.150;8.568;2023-04-24T12:11:53;13.50;99.90
14079;DHT22;7115;50.150;8.568;2023-04-24T12:14:22;13.40;99.90
14079;DHT22;7115;50.150;8.568;2023-04-24T12:16:50;13.20;99.90
14079;DHT22;7115;50.150;8.568;2023-04-24T12:19:20;12.80;99.90
14079;DHT22;7115;50.150;8.568;2023-04-24T12:21:59;12.60;99.90
14079;DHT22;7115;50.150;8.568;2023-04-24T12:24:27;12.50;99.90
14079;DHT22;7115;50.150;8.568;2023-04-24T12:26:53;12.40;99.90
14079;DHT22;7115;50.150;8.568;2023-04-24T12:29:21;12.20;99.90
14079;DHT22;7115;50.150;8.568;2023-04-24T12:31:49;12.20;99.90
14079;DHT22;7115;50.150;8.568;2023-04-24T12:34:22;12.20;99.90
14079;DHT22;7115;50.150;8.568;2023-04-24T12:36:49;12.20;99.90
14079;DHT22;7115;50.150;8.568;2023-04-24T12:39:16;12.30;99.90
14079;DHT22;7115;50.150;8.568;2023-04-24T12:41:56;12.20;99.90
14079;DHT22;7115;50.150;8.568;2023-04-24T12:44:30;12.30;99.90
14079;DHT22;7115;50.150;8.568;2023-04-24T12:46:58;12.30;99.90
14079;DHT22;7115;50.150;8.568;2023-04-24T12:49:26;12.40;99.90
14079;DHT22;7115;50.150;8.568;2023-04-24T12:51:54;12.40;99.90
14079;DHT22;7115;50.150;8.568;2023-04-24T12:54:21;12.50;99.90
14079;DHT22;7115;50.150;8.568;2023-04-24T12:56:48;12.70;99.90
14079;DHT22;7115;50.150;8.568;2023-04-24T12:59:15;13.10;99.90
14079;DHT22;7115;50.150;8.568;2023-04-24T13:01:42;13.40;99.90
14079;DHT22;7115;50.150;8.568;2023-04-24T13:04:09;13.60;99.90
14079;DHT22;7115;50.150;8.568;2023-04-24T13:06:38;13.90;99.90
14079;DHT22;7115;50.150;8.568;2023-04-24T13:09:05;14.20;99.90
14079;DHT22;7115;50.150;8.568;2023-04-24T13:11:32;14.40;99.90
14079;DHT22;7115;50.150;8.568;2023-04-24T13:13:59;14.80;99.90
14079;DHT22;7115;50.150;8.568;2023-04-24T13:16:27;15.00;99.90
14079;DHT22;7115;50.150;8.568;2023-04-24T13:18:54;15.30;99.90
14079;DHT22;7115;50.150;8.568;2023-04-24T13:21:21;15.50;99.90
14079;DHT22;7115;50.150;8.568;2023-04-24T13:23:49;15.60;99.90
14079;DHT22;7115;50.150;8.568;2023-04-24T13:26:17;15.70;99.90
14079;DHT22;7115;50.150;8.568;2023-04-24T13:28:44;15.60;99.90
14079;DHT22;7115;50.150;8.568;2023-04-24T13:31:11;15.60;99.90
14079;DHT22;7115;50.150;8.568;2023-04-24T13:33:38;15.40;99.90
14079;DHT22;7115;50.150;8.568;2023-04-24T13:36:05;15.10;99.90
14079;DHT22;7115;50.150;8.568;2023-04-24T13:38:32;14.90;99.90
14079;DHT22;7115;50.150;8.568;2023-04-24T13:41:01;14.70;99.90
14079;DHT22;7115;50.150;8.568;2023-04-24T13:43:28;14.60;99.90
14079;DHT22;7115;50.150;8.568;2023-04-24T13:45:55;14.40;99.90
14079;DHT22;7115;50.150;8.568;2023-04-24T13:48:22;14.40;99.90
14079;DHT22;7115;50.150;8.568;2023-04-24T13:50:49;14.30;99.90
14079;DHT22;7115;50.150;8.568;2023-04-24T13:53:16;14.30;99.90
14079;DHT22;7115;50.150;8.568;2023-04-24T13:55:43;14.30;99.90
14079;DHT22;7115;50.150;8.568;2023-04-24T13:58:11;14.20;99.90
14079;DHT22;7115;50.150;8.568;2023-04-24T14:00:38;14.20;99.90
14079;DHT22;7115;50.150;8.568;2023-04-24T14:03:05;14.30;99.90
14079;DHT22;7115;50.150;8.568;2023-04-24T14:05:32;14.40;99.90
14079;DHT22;7115;50.150;8.568;2023-04-24T14:07:59;14.60;99.90
14079;DHT22;7115;50.150;8.568;2023-04-24T14:10:26;14.70;99.90
14079;DHT22;7115;50.150;8.568;2023-04-24T14:12:53;14.80;99.90
14079;DHT22;7115;50.150;8.568;2023-04-24T14:15:22;14.80;99.90
14079;DHT22;7115;50.150;8.568;2023-04-24T14:17:49;14.90;99.90
14079;DHT22;7115;50.150;8.568;2023-04-24T14:20:16;15.10;99.90
14079;DHT22;7115;50.150;8.568;2023-04-24T14:22:43;15.30;99.90
14079;DHT22;7115;50.150;8.568;2023-04-24T14:25:10;15.40;99.70
14079;DHT22;7115;50.150;8.568;2023-04-24T14:27:37;15.40;99.30
14079;DHT22;7115;50.150;8.568;2023-04-24T14:30:06;15.40;99.10
14079;DHT22;7115;50.150;8.568;2023-04-24T14:32:34;15.40;98.90
14079;DHT22;7115;50.150;8.568;2023-04-24T14:35:02;15.40;98.70
14079;DHT22;7115;50.150;8.568;2023-04-24T14:37:29;15.30;98.50
14079;DHT22;7115;50.150;8.568;2023-04-24T14:39:56;15.20;98.20
14079;DHT22;7115;50.150;8.568;2023-04-24T14:42:41;15.10;98.10
14079;DHT22;7115;50.150;8.568;2023-04-24T14:45:09;14.90;98.10
14079;DHT22;7115;50.150;8.568;2023-04-24T14:47:38;14.90;98.10
14079;DHT22;7115;50.150;8.568;2023-04-24T14:50:06;14.80;98.00
14079;DHT22;7115;50.150;8.568;2023-04-24T14:52:34;14.80;98.10
14079;DHT22;7115;50.150;8.568;2023-04-24T14:55:02;14.80;98.10
14079;DHT22;7115;50.150;8.568;2023-04-24T14:57:29;14.90;98.20
14079;DHT22;7115;50.150;8.568;2023-04-24T14:59:56;14.90;98.10
14079;DHT22;7115;50.150;8.568;2023-04-24T15:02:23;14.90;98.20
14079;DHT22;7115;50.150;8.568;2023-04-24T15:04:52;14.80;98.20
14079;DHT22;7115;50.150;8.568;2023-04-24T15:07:19;14.80;98.40
14079;DHT22;7115;50.150;8.568;2023-04-24T15:09:47;14.80;98.40
14079;DHT22;7115;50.150;8.568;2023-04-24T15:12:14;14.80;98.50
14079;DHT22;7115;50.150;8.568;2023-04-24T15:14:41;14.80;98.50
14079;DHT22;7115;50.150;8.568;2023-04-24T15:17:08;14.80;98.80
14079;DHT22;7115;50.150;8.568;2023-04-24T15:19:35;14.70;98.40
14079;DHT22;7115;50.150;8.568;2023-04-24T15:22:03;14.60;98.30
14079;DHT22;7115;50.150;8.568;2023-04-24T15:24:30;14.50;98.50
14079;DHT22;7115;50.150;8.568;2023-04-24T15:26:58;14.40;98.30
14079;DHT22;7115;50.150;8.568;2023-04-24T15:29:26;14.40;98.40
14079;DHT22;7115;50.150;8.568;2023-04-24T15:31:53;14.40;98.40
14079;DHT22;7115;50.150;8.568;2023-04-24T15:34:20;14.40;98.40
14079;DHT22;7115;50.150;8.568;2023-04-24T15:36:47;14.50;98.30
14079;DHT22;7115;50.150;8.568;2023-04-24T15:39:16;14.40;98.00
14079;DHT22;7115;50.150;8.568;2023-04-24T15:41:43;14.50;97.80
14079;DHT22;7115;50.150;8.568;2023-04-24T15:44:10;14.50;97.70
14079;DHT22;7115;50.150;8.568;2023-04-24T15:46:37;14.40;97.50
14079;DHT22;7115;50.150;8.568;2023-04-24T15:49:04;14.40;97.30
14079;DHT22;7115;50.150;8.568;2023-04-24T15:51:31;14.50;97.20
14079;DHT22;7115;50.150;8.568;2023-04-24T15:53:58;14.40;97.00